Time;durP1;ratioP1;P1;durP2;ratioP2;P2;SDS_P1;SDS_P2;PMS_P1;PMS_P2;Temp;Humidity;BMP_temperature;BMP_pressure;BME280_temperature;BME280_humidity;BME280_pressure;Samples;Min_cycle;Max_cycle;Signal;HPM_P1;HPM_P2
2021/03/08 00:00:39;;;;;;;6.93;6.40;;;;;;;1.24;70.40;100307.51;123451;1105;104325;-85
2021/03/08 00:03:07;;;;;;;9.20;6.87;;;;;;;1.21;70.57;100302.20;123885;1106;104222;-82
2021/03/08 00:05:34;;;;;;;6.58;6.03;;;;;;;1.24;69.90;100303.98;123827;1105;104983;-82
2021/03/08 00:08:02;;;;;;;10.85;6.47;;;;;;;1.18;70.14;100306.56;123856;1105;104322;-83
2021/03/08 00:10:28;;;;;;;8.73;6.87;;;;;;;1.16;70.24;100315.30;123220;1105;104267;-82
2021/03/08 00:13:09;;;;;;;6.10;5.55;;;;;;;1.10;70.37;100324.84;122889;1109;104485;-81
2021/03/08 00:15:36;;;;;;;6.23;5.70;;;;;;;1.01;70.69;100322.98;122835;1109;104271;-83
2021/03/08 00:18:03;;;;;;;8.45;6.37;;;;;;;0.97;70.06;100314.22;122899;1106;104357;-82
2021/03/08 00:20:30;;;;;;;8.57;6.70;;;;;;;0.95;70.78;100315.93;123136;1105;104322;-83
2021/03/08 00:22:57;;;;;;;7.37;6.62;;;;;;;0.94;70.47;100313.30;123191;1105;104332;-82
2021/03/08 00:25:26;;;;;;;9.03;7.37;;;;;;;0.96;70.34;100320.32;123110;1105;104255;-87
2021/03/08 00:28:07;;;;;;;8.50;7.03;;;;;;;0.95;70.21;100317.69;123291;1105;104383;-82
2021/03/08 00:30:34;;;;;;;7.83;6.50;;;;;;;0.88;70.13;100314.11;123407;1105;104252;-83
2021/03/08 00:33:15;;;;;;;6.90;6.20;;;;;;;0.83;70.38;100315.80;123180;1109;105041;-85
2021/03/08 00:35:42;;;;;;;8.00;7.40;;;;;;;0.84;70.62;100312.32;123373;1109;104434;-83
2021/03/08 00:38:08;;;;;;;8.55;7.30;;;;;;;0.80;69.89;100311.39;123531;1105;104418;-82
2021/03/08 00:40:35;;;;;;;10.65;7.65;;;;;;;0.76;70.90;100303.45;123814;1105;104460;-84
2021/03/08 00:43:01;;;;;;;7.10;6.53;;;;;;;0.73;70.03;100300.81;123793;1106;104265;-82
2021/03/08 00:45:27;;;;;;;7.90;7.10;;;;;;;0.77;70.62;100302.60;123665;1105;104354;-82
2021/03/08 00:47:54;;;;;;;7.22;6.62;;;;;;;0.78;70.74;100305.23;123827;1105;104287;-87
2021/03/08 00:50:24;;;;;;;8.93;6.80;;;;;;;0.87;70.29;100306.20;123759;1106;104647;-81
2021/03/08 00:52:51;;;;;;;7.27;6.10;;;;;;;0.85;69.70;100300.95;123491;1105;104242;-81
2021/03/08 00:55:19;;;;;;;8.45;7.70;;;;;;;0.90;69.85;100295.77;123469;1105;104373;-84
2021/03/08 00:57:45;;;;;;;7.07;6.47;;;;;;;0.93;69.51;100301.91;123458;1105;104427;-83
2021/03/08 01:00:15;;;;;;;7.80;6.50;;;;;;;0.89;69.65;100294.87;123351;1105;104489;-82
2021/03/08 01:02:45;;;;;;;9.55;7.55;;;;;;;0.90;69.84;100295.77;123441;1105;104412;-91
2021/03/08 01:05:12;;;;;;;13.13;9.43;;;;;;;0.86;69.62;100292.23;123481;1106;104373;-81
2021/03/08 01:07:39;;;;;;;18.43;11.90;;;;;;;0.86;69.94;100292.23;123300;1105;104385;-81
2021/03/08 01:10:14;;;;;;;15.43;10.03;;;;;;;0.81;69.77;100286.05;123508;1105;104239;-82
2021/03/08 01:12:41;;;;;;;8.13;7.33;;;;;;;0.74;70.30;100295.58;123397;1105;104256;-81
2021/03/08 01:15:09;;;;;;;8.10;7.30;;;;;;;0.73;69.69;100285.95;123677;1105;104229;-81
2021/03/08 01:17:37;;;;;;;8.73;7.33;;;;;;;0.74;69.44;100284.23;123729;1105;104443;-82
2021/03/08 01:20:18;;;;;;;8.58;7.28;;;;;;;0.77;69.42;100287.77;123599;1105;104331;-83
2021/03/08 01:22:45;;;;;;;9.25;8.05;;;;;;;0.81;69.25;100286.95;123737;1105;104542;-82
2021/03/08 01:25:29;;;;;;;10.70;9.60;;;;;;;0.86;69.60;100280.87;123711;1105;104239;-82
2021/03/08 01:27:56;;;;;;;10.77;7.40;;;;;;;0.87;68.94;100280.89;123836;1105;104187;-81
2021/03/08 01:30:25;;;;;;;10.43;8.57;;;;;;;0.85;69.22;100284.34;123765;1105;104271;-82
2021/03/08 01:32:52;;;;;;;12.25;8.68;;;;;;;0.86;69.02;100275.63;123790;1105;104373;-82
2021/03/08 01:35:20;;;;;;;12.40;7.43;;;;;;;0.85;69.09;100277.34;123501;1105;105018;-82
2021/03/08 01:37:47;;;;;;;9.30;8.20;;;;;;;0.84;68.68;100275.62;123668;1106;104303;-82
2021/03/08 01:40:15;;;;;;;11.87;9.70;;;;;;;0.81;69.48;100271.22;123643;1105;105047;-80
2021/03/08 01:42:42;;;;;;;10.03;8.98;;;;;;;0.78;69.39;100279.02;123547;1105;105050;-82
2021/03/08 01:45:29;;;;;;;11.50;8.50;;;;;;;0.78;69.16;100280.78;123525;1105;104271;-82
2021/03/08 01:47:56;;;;;;;11.33;8.67;;;;;;;0.78;69.42;100283.41;123530;1105;104306;-84
2021/03/08 01:50:31;;;;;;;11.37;8.47;;;;;;;0.72;68.72;100278.97;123581;1105;106029;-83
2021/03/08 01:53:19;;;;;;;8.35;7.55;;;;;;;0.69;69.40;100283.29;123364;1109;104409;-80
2021/03/08 01:55:46;;;;;;;10.30;8.13;;;;;;;0.62;69.54;100282.34;123348;1108;104211;-86
2021/03/08 01:58:12;;;;;;;9.28;8.33;;;;;;;0.59;69.13;100280.55;123272;1109;104441;-81
2021/03/08 02:00:40;;;;;;;9.08;7.05;;;;;;;0.62;69.32;100287.58;123289;1109;104733;-81
2021/03/08 02:03:06;;;;;;;8.93;8.13;;;;;;;0.57;69.72;100286.63;123337;1109;104386;-81
2021/03/08 02:05:36;;;;;;;9.87;8.80;;;;;;;0.58;68.79;100294.52;123300;1109;104293;-82
2021/03/08 02:08:05;;;;;;;8.73;8.03;;;;;;;0.58;68.84;100296.27;123378;1108;104613;-82
2021/03/08 02:10:35;;;;;;;9.40;8.43;;;;;;;0.58;69.10;100297.13;123517;1109;105159;-83
2021/03/08 02:13:34;;;;;;;9.23;8.20;;;;;;;0.50;69.37;100298.78;123464;1109;104809;-88
2021/03/08 02:16:00;;;;;;;8.90;8.10;;;;;;;0.59;68.98;100303.27;123374;1108;104396;-81
2021/03/08 02:18:55;;;;;;;8.47;7.80;;;;;;;0.52;68.60;100304.03;123421;1109;104376;-81
2021/03/08 02:21:41;;;;;;;10.33;8.27;;;;;;;0.49;69.01;100305.77;123367;1109;104427;-83
2021/03/08 02:24:27;;;;;;;9.43;7.72;;;;;;;0.42;69.03;100308.28;123375;1109;104501;-81
2021/03/08 02:27:05;;;;;;;9.05;8.18;;;;;;;0.38;68.87;100315.21;123495;1109;104358;-82
2021/03/08 02:29:50;;;;;;;8.93;8.03;;;;;;;0.38;69.42;100316.97;123466;1109;104150;-82
2021/03/08 02:32:24;;;;;;;8.43;7.73;;;;;;;0.38;69.62;100312.59;123738;1105;104229;-82
2021/03/08 02:35:06;;;;;;;7.97;7.17;;;;;;;0.32;69.35;100316.02;123773;1105;104235;-81
2021/03/08 02:37:39;;;;;;;8.53;6.95;;;;;;;0.35;69.74;100319.52;123638;1104;104686;-82
2021/03/08 02:40:13;;;;;;;7.65;6.95;;;;;;;0.30;69.38;100315.09;123649;1105;104201;-84
2021/03/08 02:42:41;;;;;;;8.47;7.67;;;;;;;0.33;69.55;100319.50;123758;1105;104467;-83
2021/03/08 02:45:10;;;;;;;8.73;7.92;;;;;;;0.25;69.07;100322.01;123472;1105;104609;-82
2021/03/08 02:47:41;;;;;;;8.28;7.53;;;;;;;0.25;69.05;100324.63;123430;1105;104334;-80
2021/03/08 02:50:10;;;;;;;8.43;7.63;;;;;;;0.21;69.47;100322.82;123576;1105;104306;-79
2021/03/08 02:52:41;;;;;;;7.47;6.87;;;;;;;0.22;69.82;100329.83;123610;1105;104492;-81
2021/03/08 02:55:09;;;;;;;9.40;7.62;;;;;;;0.19;69.44;100327.17;123548;1105;104379;-84
2021/03/08 02:57:39;;;;;;;7.97;7.00;;;;;;;0.14;69.80;100328.84;123413;1105;104354;-80
2021/03/08 03:00:11;;;;;;;9.90;7.83;;;;;;;0.14;69.49;100345.42;123475;1105;104316;-81
2021/03/08 03:02:39;;;;;;;8.20;7.57;;;;;;;0.04;69.89;100337.41;123529;1105;104229;-80
2021/03/08 03:05:11;;;;;;;8.43;7.53;;;;;;;-0.02;69.98;100343.44;123703;1105;104325;-81
2021/03/08 03:07:42;;;;;;;9.13;8.27;;;;;;;-0.04;70.19;100342.52;123729;1105;104348;-82
2021/03/08 03:10:10;;;;;;;9.73;7.60;;;;;;;-0.08;70.52;100348.56;123739;1105;104310;-82
2021/03/08 03:12:37;;;;;;;8.60;7.63;;;;;;;-0.14;70.60;100353.72;123718;1105;104342;-80
2021/03/08 03:15:06;;;;;;;8.30;7.50;;;;;;;-0.14;70.49;100362.44;123780;1105;104309;-81
2021/03/08 03:17:35;;;;;;;9.20;8.00;;;;;;;-0.20;70.28;100368.45;123735;1105;104205;-82
2021/03/08 03:20:04;;;;;;;9.77;7.87;;;;;;;-0.20;70.66;100378.02;123751;1104;104207;-81
2021/03/08 03:22:31;;;;;;;8.75;8.05;;;;;;;-0.20;70.20;100373.69;123758;1105;104877;-82
2021/03/08 03:25:00;;;;;;;9.03;8.13;;;;;;;-0.22;70.65;100377.14;123758;1106;104392;-80
2021/03/08 03:27:27;;;;;;;10.50;9.43;;;;;;;-0.21;70.04;100379.77;123752;1106;104639;-82
2021/03/08 03:29:54;;;;;;;10.15;9.10;;;;;;;-0.18;70.63;100376.33;123699;1105;104382;-83
2021/03/08 03:32:22;;;;;;;10.73;9.20;;;;;;;-0.15;69.92;100383.36;123611;1106;104313;-80
2021/03/08 03:35:03;;;;;;;10.23;9.18;;;;;;;-0.19;70.18;100378.08;123529;1106;104275;-82
2021/03/08 03:37:31;;;;;;;11.90;10.70;;;;;;;-0.19;70.39;100385.93;123837;1105;104338;-83
2021/03/08 03:39:58;;;;;;;15.10;11.50;;;;;;;-0.26;70.32;100391.03;123761;1105;104349;-81
2021/03/08 03:42:41;;;;;;;10.55;9.55;;;;;;;-0.27;70.19;100390.13;123197;1105;105085;-80
2021/03/08 03:45:10;;;;;;;10.90;9.45;;;;;;;-0.31;70.60;100392.67;123222;1105;104887;-82
2021/03/08 03:47:52;;;;;;;10.30;8.75;;;;;;;-0.29;70.45;100398.80;122852;1109;104434;-81
2021/03/08 03:50:33;;;;;;;9.73;8.63;;;;;;;-0.32;70.25;100396.14;122947;1105;104555;-83
2021/03/08 03:53:00;;;;;;;10.25;8.40;;;;;;;-0.29;70.61;100397.09;123202;1105;104306;-81
2021/03/08 03:55:41;;;;;;;10.80;9.33;;;;;;;-0.28;70.46;100405.80;123070;1109;106012;-81
2021/03/08 03:58:30;;;;;;;10.45;9.05;;;;;;;-0.30;70.26;100403.16;123059;1109;104716;-81
2021/03/08 04:01:06;;;;;;;9.60;8.70;;;;;;;-0.38;70.11;100400.41;123278;1106;104679;-81
2021/03/08 04:03:37;;;;;;;10.82;8.68;;;;;;;-0.39;70.14;100403.87;123430;1105;104498;-83
2021/03/08 04:06:06;;;;;;;9.87;8.73;;;;;;;-0.37;70.42;100410.02;123029;1105;104254;-82
2021/03/08 04:08:49;;;;;;;11.30;9.90;;;;;;;-0.37;70.29;100401.31;123041;1109;104489;-82
2021/03/08 04:11:32;;;;;;;10.40;8.60;;;;;;;-0.38;70.32;100408.25;122981;1109;105097;-80
2021/03/08 04:14:02;;;;;;;9.03;8.08;;;;;;;-0.39;70.24;100403.87;123272;1109;104345;-85
2021/03/08 04:16:30;;;;;;;9.23;8.37;;;;;;;-0.40;69.90;100406.46;123545;1109;104814;-80
2021/03/08 04:18:58;;;;;;;11.07;10.17;;;;;;;-0.44;69.99;100412.49;123455;1109;104230;-82
2021/03/08 04:21:25;;;;;;;10.83;9.80;;;;;;;-0.44;70.12;100420.34;123452;1109;104861;-83
2021/03/08 04:23:54;;;;;;;9.75;8.80;;;;;;;-0.48;70.20;100415.91;123290;1109;104302;-80
2021/03/08 04:26:39;;;;;;;11.08;9.05;;;;;;;-0.50;70.35;100418.50;123431;1109;104230;-83
2021/03/08 04:29:06;;;;;;;9.88;8.88;;;;;;;-0.54;70.14;100422.78;123457;1109;104290;-81
2021/03/08 04:31:34;;;;;;;12.35;9.28;;;;;;;-0.56;70.34;100421.89;123427;1109;104443;-82
2021/03/08 04:34:02;;;;;;;12.47;9.13;;;;;;;-0.57;70.23;100429.71;123537;1109;105094;-82
2021/03/08 04:36:44;;;;;;;12.43;9.93;;;;;;;-0.59;70.26;100429.66;123520;1109;104395;-82
2021/03/08 04:39:11;;;;;;;13.60;10.87;;;;;;;-0.62;69.91;100421.76;123451;1108;104476;-82
2021/03/08 04:41:38;;;;;;;12.28;10.13;;;;;;;-0.58;70.27;100423.58;123505;1109;104923;-82
2021/03/08 04:44:08;;;;;;;11.38;9.80;;;;;;;-0.56;70.15;100428.84;123515;1108;104636;-80
2021/03/08 04:46:35;;;;;;;10.87;9.77;;;;;;;-0.53;69.97;100423.69;123559;1106;104409;-86
2021/03/08 04:49:05;;;;;;;10.25;9.25;;;;;;;-0.60;70.10;100427.91;123652;1105;104255;-82
2021/03/08 04:51:32;;;;;;;11.83;10.37;;;;;;;-0.60;69.82;100425.30;123619;1105;104226;-81
2021/03/08 04:54:01;;;;;;;12.00;10.80;;;;;;;-0.59;69.73;100434.89;123723;1106;105082;-82
2021/03/08 04:56:32;;;;;;;10.77;9.67;;;;;;;-0.60;70.00;100433.15;123790;1105;104215;-82
2021/03/08 04:58:59;;;;;;;11.23;9.83;;;;;;;-0.60;69.54;100434.86;123780;1105;104258;-80
2021/03/08 05:01:27;;;;;;;13.70;11.00;;;;;;;-0.64;69.74;100435.66;123697;1105;104482;-81
2021/03/08 05:03:55;;;;;;;11.43;10.00;;;;;;;-0.64;69.98;100441.79;123750;1105;104417;-82
2021/03/08 05:06:22;;;;;;;16.13;10.77;;;;;;;-0.69;69.80;100441.68;123626;1105;104425;-90
2021/03/08 05:08:49;;;;;;;16.27;12.28;;;;;;;-0.68;70.04;100439.94;123572;1105;104261;-81
2021/03/08 05:11:16;;;;;;;17.10;12.60;;;;;;;-0.66;69.85;100434.77;123616;1105;104405;-82
2021/03/08 05:13:49;;;;;;;15.20;12.33;;;;;;;-0.68;70.10;100448.69;123529;1105;104267;-82
2021/03/08 05:16:17;;;;;;;13.48;11.20;;;;;;;-0.70;70.01;100439.04;123690;1105;104194;-82
2021/03/08 05:18:47;;;;;;;10.50;9.37;;;;;;;-0.67;70.00;100441.70;123662;1105;104224;-82
2021/03/08 05:21:17;;;;;;;14.10;10.75;;;;;;;-0.62;69.83;100444.43;123800;1105;104239;-82
2021/03/08 05:23:44;;;;;;;11.50;9.50;;;;;;;-0.60;70.18;100448.84;123692;1105;104270;-87
2021/03/08 05:26:11;;;;;;;16.57;12.17;;;;;;;-0.61;69.84;100452.30;123758;1105;104257;-80
2021/03/08 05:28:38;;;;;;;13.70;12.03;;;;;;;-0.62;69.70;100452.27;123656;1105;104424;-83
2021/03/08 05:31:05;;;;;;;12.33;10.75;;;;;;;-0.56;70.18;100455.89;123762;1105;104913;-81
2021/03/08 05:33:32;;;;;;;14.63;10.93;;;;;;;-0.60;69.73;100458.41;123669;1105;104415;-80
2021/03/08 05:36:00;;;;;;;14.60;12.17;;;;;;;-0.58;69.64;100462.81;123705;1105;104451;-84
2021/03/08 05:38:29;;;;;;;12.82;10.45;;;;;;;-0.52;69.55;100462.95;123835;1105;104275;-80
2021/03/08 05:41:13;;;;;;;12.10;10.27;;;;;;;-0.54;69.46;100462.02;123682;1105;104392;-84
2021/03/08 05:43:58;;;;;;;13.60;10.03;;;;;;;-0.55;69.33;100456.77;123295;1109;104389;-81
2021/03/08 05:46:36;;;;;;;10.70;7.75;;;;;;;-0.54;69.55;100456.79;123345;1109;104261;-83
2021/03/08 05:49:26;;;;;;;15.78;10.08;;;;;;;-0.56;69.19;100461.13;123276;1106;104242;-81
2021/03/08 05:52:21;;;;;;;12.73;11.18;;;;;;;-0.53;69.32;100460.30;123393;1105;104169;-81
2021/03/08 05:55:14;;;;;;;19.27;12.90;;;;;;;-0.56;69.38;100468.07;123395;1105;104399;-80
2021/03/08 05:58:21;;;;;;;15.80;11.83;;;;;;;-0.54;69.70;100472.48;123326;1105;104236;-80
2021/03/08 06:01:25;;;;;;;16.77;10.75;;;;;;;-0.45;69.51;100478.75;123227;1106;104297;-81
2021/03/08 06:04:03;;;;;;;13.35;11.90;;;;;;;-0.38;68.94;100478.91;123699;1105;104165;-82
2021/03/08 06:06:58;;;;;;;15.50;10.90;;;;;;;-0.41;69.44;100480.60;123737;1105;106374;-83
2021/03/08 06:09:26;;;;;;;18.20;11.57;;;;;;;-0.37;68.75;100487.66;123626;1105;104261;-82
2021/03/08 06:11:59;;;;;;;15.83;10.53;;;;;;;-0.31;69.26;100482.52;123584;1106;104996;-82
2021/03/08 06:14:44;;;;;;;12.65;9.45;;;;;;;-0.28;69.17;100489.55;123551;1105;104684;-83
2021/03/08 06:17:13;;;;;;;10.98;9.73;;;;;;;-0.27;69.13;100500.04;123663;1106;104373;-81
2021/03/08 06:19:45;;;;;;;13.98;12.58;;;;;;;-0.24;69.20;100494.89;123593;1105;104427;-83
2021/03/08 06:22:26;;;;;;;13.75;11.73;;;;;;;-0.27;68.81;100499.17;123769;1105;104178;-80
2021/03/08 06:24:54;;;;;;;12.07;10.77;;;;;;;-0.23;69.04;100507.09;123712;1105;104268;-81
2021/03/08 06:27:21;;;;;;;10.75;9.03;;;;;;;-0.18;69.30;100507.20;123593;1105;104639;-81
2021/03/08 06:29:48;;;;;;;13.73;10.53;;;;;;;-0.18;68.77;100507.20;123591;1105;104374;-80
2021/03/08 06:32:15;;;;;;;11.13;9.60;;;;;;;-0.14;68.83;100508.16;123616;1106;104418;-80
2021/03/08 06:34:41;;;;;;;12.63;10.27;;;;;;;-0.12;68.77;100519.52;123634;1105;105053;-80
2021/03/08 06:37:09;;;;;;;19.00;11.85;;;;;;;-0.09;68.54;100522.22;123693;1105;104485;-81
2021/03/08 06:39:43;;;;;;;10.93;9.83;;;;;;;-0.11;68.82;100523.91;123607;1105;104246;-82
2021/03/08 06:42:12;;;;;;;9.37;8.17;;;;;;;-0.14;68.46;100529.96;123575;1105;104271;-84
2021/03/08 06:44:38;;;;;;;11.97;9.95;;;;;;;-0.14;68.55;100534.33;123591;1105;104489;-80
2021/03/08 06:47:07;;;;;;;9.53;8.57;;;;;;;-0.09;68.69;100530.94;123507;1105;104239;-81
2021/03/08 06:49:49;;;;;;;13.90;10.50;;;;;;;0.00;68.97;100532.86;123344;1109;104329;-82
2021/03/08 06:52:18;;;;;;;9.88;8.05;;;;;;;0.03;68.01;100543.38;123290;1109;104200;-82
2021/03/08 06:55:01;;;;;;;14.45;10.13;;;;;;;0.13;68.51;100536.57;123575;1109;104210;-83
2021/03/08 06:57:30;;;;;;;9.10;8.15;;;;;;;0.20;68.12;100542.80;123435;1109;104258;-82
2021/03/08 06:59:58;;;;;;;12.45;9.38;;;;;;;0.35;68.21;100543.09;123435;1109;104392;-81
2021/03/08 07:02:40;;;;;;;8.35;7.60;;;;;;;0.39;67.78;100544.91;123549;1108;104245;-81
2021/03/08 07:05:09;;;;;;;9.30;8.45;;;;;;;0.49;67.50;100546.84;123457;1109;104418;-80
2021/03/08 07:07:52;;;;;;;10.43;8.65;;;;;;;0.51;67.13;100546.86;123381;1109;104517;-82
2021/03/08 07:10:41;;;;;;;10.63;9.03;;;;;;;0.55;67.45;100553.02;123540;1109;104541;-83
2021/03/08 07:13:10;;;;;;;11.33;8.87;;;;;;;0.57;67.11;100552.18;123625;1108;104254;-82
2021/03/08 07:15:56;;;;;;;9.37;8.47;;;;;;;0.63;67.35;100554.05;123504;1109;104395;-85
2021/03/08 07:18:23;;;;;;;9.70;8.65;;;;;;;0.73;67.12;100560.31;123491;1109;104237;-81
2021/03/08 07:20:55;;;;;;;15.10;9.47;;;;;;;0.78;66.91;100556.03;123591;1108;104207;-80
2021/03/08 07:23:26;;;;;;;10.37;9.03;;;;;;;0.82;66.31;100556.09;123815;1109;104329;-82
2021/03/08 07:26:17;;;;;;;9.43;7.67;;;;;;;0.86;66.42;100561.41;123444;1109;104382;-81
2021/03/08 07:28:45;;;;;;;9.47;8.53;;;;;;;0.99;66.21;100563.36;123646;1105;105083;-81
2021/03/08 07:31:38;;;;;;;9.45;8.55;;;;;;;1.00;65.38;100560.75;123386;1105;104379;-80
2021/03/08 07:34:08;;;;;;;9.60;8.03;;;;;;;1.05;65.53;100565.18;123671;1105;104306;-80
2021/03/08 07:36:37;;;;;;;8.03;7.25;;;;;;;1.02;65.39;100563.39;123357;1105;104335;-80
2021/03/08 07:39:17;;;;;;;8.23;7.42;;;;;;;1.00;65.85;100557.26;123478;1105;104373;-82
2021/03/08 07:42:06;;;;;;;9.95;8.28;;;;;;;1.04;65.94;100553.83;123509;1104;104267;-90
2021/03/08 07:44:33;;;;;;;11.97;8.57;;;;;;;1.07;66.07;100561.73;123478;1105;104251;-81
2021/03/08 07:47:15;;;;;;;9.03;8.10;;;;;;;1.19;66.08;100561.03;123451;1105;104373;-82
2021/03/08 07:49:42;;;;;;;9.68;7.70;;;;;;;1.26;65.96;100562.00;123393;1105;104373;-89
2021/03/08 07:52:11;;;;;;;10.33;6.83;;;;;;;1.36;64.71;100555.13;123384;1105;104246;-81
2021/03/08 07:55:00;;;;;;;11.03;6.83;;;;;;;1.48;64.75;100558.81;123377;1105;104204;-82
2021/03/08 07:57:28;;;;;;;7.47;6.78;;;;;;;1.61;64.16;100559.86;123618;1105;105156;-80
2021/03/08 07:59:55;;;;;;;7.42;6.50;;;;;;;1.73;64.34;100564.36;123643;1106;104258;-81
2021/03/08 08:02:23;;;;;;;9.20;7.05;;;;;;;1.83;64.05;100560.13;123708;1105;104226;-80
2021/03/08 08:05:01;;;;;;;11.83;7.30;;;;;;;1.89;63.37;100568.05;123766;1105;104973;-86
2021/03/08 08:07:31;;;;;;;11.30;7.35;;;;;;;1.86;63.79;100569.78;123348;1105;104475;-80
2021/03/08 08:10:01;;;;;;;11.65;8.28;;;;;;;1.91;64.45;100573.34;123466;1105;104235;-80
2021/03/08 08:12:33;;;;;;;11.22;8.75;;;;;;;1.95;63.96;100577.77;123554;1105;104328;-81
2021/03/08 08:15:05;;;;;;;8.05;7.25;;;;;;;1.93;63.28;100571.60;123474;1105;104309;-80
2021/03/08 08:17:35;;;;;;;7.27;6.30;;;;;;;1.99;63.14;100571.69;123552;1105;104733;-80
2021/03/08 08:20:04;;;;;;;7.75;7.05;;;;;;;2.04;63.59;100567.38;123572;1105;104345;-80
2021/03/08 08:22:34;;;;;;;12.87;10.23;;;;;;;2.06;63.70;100567.38;123482;1105;104227;-79
2021/03/08 08:25:05;;;;;;;13.00;8.47;;;;;;;2.08;63.38;100570.89;123465;1105;104226;-80
2021/03/08 08:27:34;;;;;;;9.47;7.17;;;;;;;2.07;63.54;100570.02;123576;1105;104252;-82
2021/03/08 08:30:02;;;;;;;6.55;5.80;;;;;;;2.16;62.84;100585.02;123757;1105;104293;-83
2021/03/08 08:32:48;;;;;;;7.33;6.70;;;;;;;2.25;62.71;100579.83;123742;1105;104334;-82
2021/03/08 08:35:29;;;;;;;15.10;6.37;;;;;;;2.35;62.88;100591.34;123624;1106;104328;-83
2021/03/08 08:38:18;;;;;;;7.27;6.33;;;;;;;2.40;61.75;100588.75;123636;1105;104223;-80
2021/03/08 08:41:18;;;;;;;6.87;5.80;;;;;;;2.43;61.15;100596.69;123803;1105;104418;-81
2021/03/08 08:43:46;;;;;;;6.60;5.87;;;;;;;2.65;60.46;100592.50;123770;1105;104250;-80
2021/03/08 08:46:25;;;;;;;5.28;4.87;;;;;;;2.81;59.32;100593.52;123680;1106;104127;-85
2021/03/08 08:49:05;;;;;;;7.53;6.58;;;;;;;2.93;59.50;100580.48;123724;1105;104395;-80
2021/03/08 08:51:57;;;;;;;6.90;4.93;;;;;;;3.09;59.84;100589.37;123423;1105;104380;-82
2021/03/08 08:54:32;;;;;;;7.10;5.30;;;;;;;2.94;57.71;100602.40;123324;1105;104352;-80
2021/03/08 08:57:04;;;;;;;4.97;4.55;;;;;;;2.80;57.21;100595.27;123510;1105;104344;-83
2021/03/08 08:59:35;;;;;;;6.10;5.15;;;;;;;2.75;57.48;100601.38;123322;1105;104376;-81
2021/03/08 09:02:30;;;;;;;5.87;4.80;;;;;;;2.74;57.19;100600.47;123396;1105;104225;-83
2021/03/08 09:05:29;;;;;;;7.30;4.42;;;;;;;2.81;56.54;100591.78;123405;1105;105190;-82
2021/03/08 09:08:25;;;;;;;5.40;4.90;;;;;;;2.89;57.26;100589.19;123535;1105;104309;-86
2021/03/08 09:10:51;;;;;;;6.87;5.60;;;;;;;3.34;56.32;100592.16;122903;1105;104303;-81
2021/03/08 09:13:18;;;;;;;7.17;5.27;;;;;;;3.79;54.67;100597.68;122933;1105;104395;-79
2021/03/08 09:15:45;;;;;;;6.63;5.60;;;;;;;5.41;50.00;100595.27;122883;1105;104329;-81
2021/03/08 09:18:12;;;;;;;10.15;6.80;;;;;;;7.35;46.19;100595.89;123041;1105;104536;-80
2021/03/08 09:20:42;;;;;;;6.70;4.28;;;;;;;7.74;43.57;100586.66;122866;1105;104248;-87
2021/03/08 09:23:28;;;;;;;4.80;4.00;;;;;;;8.29;44.45;100587.72;123650;1105;104220;-79
2021/03/08 09:25:59;;;;;;;8.10;6.20;;;;;;;9.72;39.96;100584.48;123456;1105;104370;-83
2021/03/08 09:28:48;;;;;;;6.47;3.60;;;;;;;10.02;38.17;100585.65;123520;1105;104470;-80
2021/03/08 09:31:19;;;;;;;4.40;3.53;;;;;;;9.19;39.44;100593.42;123229;1105;104451;-82
2021/03/08 09:33:47;;;;;;;7.43;5.83;;;;;;;10.00;39.47;100591.91;123609;1105;104254;-84
2021/03/08 09:36:18;;;;;;;5.20;4.70;;;;;;;9.23;39.15;100598.70;123093;1105;104259;-86
2021/03/08 09:38:48;;;;;;;5.70;4.53;;;;;;;8.49;41.39;100603.39;123499;1105;104223;-87
2021/03/08 09:41:16;;;;;;;5.80;4.37;;;;;;;7.97;41.57;100599.63;124543;1106;104255;-81
2021/03/08 09:43:42;;;;;;;5.72;4.90;;;;;;;7.25;42.12;100612.79;125379;1105;104174;-85
2021/03/08 09:46:16;;;;;;;5.87;4.63;;;;;;;6.70;43.15;100616.74;125551;1105;104372;-87
2021/03/08 09:48:53;;;;;;;10.73;7.60;;;;;;;6.07;43.82;100617.98;125743;1105;103238;-84
2021/03/08 09:51:21;;;;;;;10.72;8.15;;;;;;;5.65;45.29;100614.55;125475;1105;104156;-88
2021/03/08 09:53:49;;;;;;;8.78;6.83;;;;;;;5.35;46.19;100633.11;125222;1105;104291;-92
2021/03/08 09:56:24;;;;;;;6.17;5.63;;;;;;;5.16;47.15;100626.10;124668;1105;104169;-81
2021/03/08 09:59:09;;;;;;;13.38;7.80;;;;;;;5.07;47.35;100631.38;124392;1105;104396;-86
2021/03/08 10:01:36;;;;;;;8.88;6.50;;;;;;;5.34;46.71;100628.73;123641;1106;104169;-81
2021/03/08 10:04:05;;;;;;;15.98;7.37;;;;;;;5.69;46.21;100609.27;123943;1105;104210;-81
2021/03/08 10:06:45;;;;;;;5.50;4.92;;;;;;;7.73;43.47;100622.02;124024;1106;104341;-83
2021/03/08 10:09:21;;;;;;;13.32;6.20;;;;;;;8.98;41.78;100625.67;123662;1106;104306;-80
2021/03/08 10:11:48;;;;;;;9.48;5.15;;;;;;;9.78;38.33;100618.06;123456;1105;104675;-81
2021/03/08 10:14:28;;;;;;;5.10;4.60;;;;;;;10.96;36.41;100613.76;123596;1105;104406;-82
2021/03/08 10:17:14;;;;;;;4.62;3.42;;;;;;;12.27;34.53;100601.34;123705;1105;104301;-81
2021/03/08 10:19:56;;;;;;;5.17;3.33;;;;;;;10.49;35.39;100614.83;123651;1104;104322;-82
2021/03/08 10:22:38;;;;;;;4.58;3.00;;;;;;;9.16;36.82;100624.50;123645;1105;104516;-81
2021/03/08 10:25:22;;;;;;;4.00;3.63;;;;;;;8.14;37.96;100636.56;123451;1105;104658;-82
2021/03/08 10:27:59;;;;;;;4.00;3.60;;;;;;;9.89;36.18;100626.72;123534;1105;104152;-81
2021/03/08 10:30:28;;;;;;;4.50;3.17;;;;;;;8.98;36.96;100637.19;123594;1105;104226;-85
2021/03/08 10:33:06;;;;;;;6.37;3.80;;;;;;;8.14;39.35;100639.21;123285;1105;104274;-80
2021/03/08 10:35:39;;;;;;;4.80;3.40;;;;;;;11.06;35.91;100633.05;123540;1105;104342;-83
2021/03/08 10:38:27;;;;;;;5.30;3.50;;;;;;;13.61;32.93;100620.17;123437;1105;104207;-83
2021/03/08 10:40:58;;;;;;;5.10;3.15;;;;;;;15.12;28.44;100624.28;123543;1105;104376;-82
2021/03/08 10:43:26;;;;;;;4.93;2.17;;;;;;;16.13;28.12;100618.14;123348;1105;104303;-81
2021/03/08 10:45:55;;;;;;;3.30;2.33;;;;;;;16.09;26.88;100627.26;123386;1105;104290;-83
2021/03/08 10:48:22;;;;;;;4.17;2.10;;;;;;;14.13;28.35;100625.44;123374;1106;104267;-82
2021/03/08 10:50:50;;;;;;;5.30;2.20;;;;;;;14.29;28.24;100629.30;123293;1105;104733;-80
2021/03/08 10:54:27;;;;;;;;;;;;;;;;;;;;;
2021/03/08 10:56:44;;;;;;;4.23;2.60;;;;;;;11.21;31.54;100630.02;123299;1105;104717;-80
2021/03/08 10:59:24;;;;;;;3.87;2.77;;;;;;;10.58;32.70;100631.50;123242;1105;104382;-80
2021/03/08 11:02:10;;;;;;;3.57;2.10;;;;;;;9.76;32.49;100642.03;123534;1105;104299;-82
2021/03/08 11:04:37;;;;;;;2.67;1.67;;;;;;;8.87;34.18;100642.64;123210;1105;104381;-82
2021/03/08 11:07:06;;;;;;;2.83;2.30;;;;;;;8.30;35.11;100651.41;123320;1105;104392;-87
2021/03/08 11:09:35;;;;;;;4.67;2.63;;;;;;;7.72;36.51;100642.35;123224;1105;105146;-81
2021/03/08 11:12:03;;;;;;;5.80;3.05;;;;;;;7.30;37.66;100641.88;123126;1105;104683;-84
2021/03/08 11:14:48;;;;;;;21.93;12.57;;;;;;;6.77;38.31;100650.23;123265;1105;104248;-83
2021/03/08 11:17:15;;;;;;;7.03;4.33;;;;;;;6.35;39.30;100645.16;123249;1106;104390;-82
2021/03/08 11:19:43;;;;;;;4.80;4.15;;;;;;;6.07;40.13;100654.99;123286;1104;104509;-83
2021/03/08 11:22:14;;;;;;;4.40;3.27;;;;;;;5.74;40.66;100659.45;123262;1105;104258;-82
2021/03/08 11:24:49;;;;;;;4.47;3.60;;;;;;;5.59;42.07;100656.86;123166;1105;104847;-81
2021/03/08 11:27:30;;;;;;;5.10;3.62;;;;;;;5.44;42.51;100655.09;123119;1109;104538;-83
2021/03/08 11:29:58;;;;;;;5.23;3.90;;;;;;;5.29;42.49;100658.64;122997;1109;104998;-81
2021/03/08 11:32:28;;;;;;;8.93;4.08;;;;;;;5.24;43.12;100668.31;123530;1105;104233;-82
2021/03/08 11:35:24;;;;;;;5.08;4.55;;;;;;;5.07;43.46;100657.78;123364;1105;104262;-84
2021/03/08 11:37:57;;;;;;;4.07;3.77;;;;;;;5.00;42.56;100668.32;123438;1105;104309;-82
2021/03/08 11:40:25;;;;;;;5.60;4.30;;;;;;;4.96;41.87;100657.78;123449;1105;104152;-83